.
WxDataArchive / Data Records for 2011-02-03
2011-02-02 February 2011 2011-02-04

Data Records for Thursday, 03 February 2011

Time	Temp	Chill	HIndex	Humid	Dewpt	 Wind 	HiWind	WindDir	Rain 	Barom 
-----	----	-----	------	-----	-----	------	------	-------	-----	----- 
00:00	14.1	14.1	14.1	84	10.2	0	0	---	0.00	30.452 
00:05	14.0	14.0	14.0	84	10.1	0	0	---	0.00	30.452 
00:10	14.0	14.0	14.0	84	10.1	0	1	292	0.00	30.452 
00:15	13.8	13.8	13.8	84	9.9	0	0	---	0.00	30.456 
00:20	13.5	13.5	13.5	84	9.6	0	0	---	0.00	30.456 
00:25	13.3	13.3	13.3	84	9.4	0	0	---	0.00	30.456 
00:30	13.1	13.1	13.1	84	9.2	0	0	---	0.00	30.461 
00:35	12.9	12.9	12.9	84	9.0	0	0	---	0.00	30.461 
00:40	12.9	12.9	12.9	84	9.0	0	0	---	0.00	30.461 
00:45	12.9	12.9	12.9	85	9.3	0	0	---	0.00	30.463 
00:50	12.8	12.8	12.8	85	9.2	0	0	---	0.00	30.463 
00:55	12.8	12.8	12.8	85	9.2	0	0	---	0.00	30.463 
01:00	12.6	12.6	12.6	85	9.0	0	0	---	0.00	30.464 
01:05	12.6	12.6	12.6	85	9.0	0	0	---	0.00	30.464 
01:10	12.4	12.4	12.4	85	8.8	0	0	---	0.00	30.464 
01:15	12.3	12.3	12.3	85	8.7	0	0	---	0.00	30.467 
01:20	12.3	12.3	12.3	85	8.7	0	0	---	0.00	30.467 
01:25	12.3	12.3	12.3	85	8.7	0	0	---	0.00	30.467 
01:30	12.4	12.4	12.4	85	8.8	0	0	---	0.00	30.468 
01:35	12.3	12.3	12.3	85	8.7	0	0	---	0.00	30.468 
01:40	12.1	12.1	12.1	85	8.5	0	0	---	0.00	30.468 
01:45	11.9	11.9	11.9	85	8.3	0	0	---	0.00	30.468 
01:50	11.7	11.7	11.7	85	8.1	0	0	---	0.00	30.468 
01:55	11.2	11.2	11.2	85	7.6	0	0	---	0.00	30.468 
02:00	10.9	10.9	10.9	84	7.0	0	0	---	0.00	30.478 
02:05	10.7	10.7	10.7	84	6.8	0	0	---	0.00	30.478 
02:10	10.5	10.5	10.5	85	6.9	0	0	---	0.00	30.478 
02:15	10.4	10.4	10.4	85	6.8	0	0	---	0.00	30.476 
02:20	10.5	10.5	10.5	85	6.9	0	0	---	0.00	30.476 
02:25	10.5	10.5	10.5	85	6.9	0	0	---	0.00	30.476 
02:30	10.7	10.7	10.7	85	7.1	0	0	---	0.00	30.479 
02:35	11.1	11.1	11.1	86	7.7	0	0	---	0.00	30.479 
02:40	11.2	11.2	11.2	86	7.8	0	0	---	0.00	30.479 
02:45	11.2	11.2	11.2	86	7.8	0	0	---	0.00	30.479 
02:50	11.2	11.2	11.2	86	7.8	0	0	---	0.00	30.479 
02:55	11.4	11.4	11.4	86	8.0	0	0	---	0.00	30.479 
03:00	11.4	11.4	11.4	86	8.0	0	0	---	0.00	30.479 
03:05	11.4	11.4	11.4	86	8.0	0	0	---	0.00	30.479 
03:10	11.2	11.2	11.2	86	7.8	0	0	---	0.00	30.479 
03:15	11.4	11.4	11.4	86	8.0	0	0	---	0.00	30.480 
03:20	11.4	11.4	11.4	86	8.0	0	0	---	0.00	30.480 
03:25	11.9	11.9	11.9	87	8.8	0	0	---	0.00	30.480 
03:30	12.3	12.3	12.3	87	9.2	0	0	---	0.00	30.478 
03:35	12.8	12.8	12.8	87	9.7	0	0	---	0.00	30.478 
03:40	12.9	12.9	12.9	87	9.8	0	0	---	0.00	30.478 
03:45	12.9	12.9	12.9	87	9.8	0	0	---	0.00	30.478 
03:50	12.9	12.9	12.9	86	9.5	0	0	---	0.00	30.478 
03:55	12.8	12.8	12.8	86	9.4	0	0	---	0.00	30.478 
04:00	12.6	12.6	12.6	86	9.2	0	0	---	0.00	30.479 
04:05	12.4	12.4	12.4	86	9.0	0	0	---	0.00	30.479 
04:10	12.1	12.1	12.1	86	8.7	0	0	---	0.00	30.479 
04:15	11.7	11.7	11.7	86	8.3	0	0	---	0.00	30.482 
04:20	11.6	11.6	11.6	86	8.2	0	0	---	0.00	30.482 
04:25	11.6	11.6	11.6	86	8.2	0	0	---	0.00	30.482 
04:30	11.6	11.6	11.6	86	8.2	0	0	---	0.00	30.482 
04:35	11.4	11.4	11.4	86	8.0	0	0	---	0.00	30.482 
04:40	11.2	11.2	11.2	86	7.8	0	0	---	0.00	30.482 
04:45	11.1	11.1	11.1	86	7.7	0	0	---	0.00	30.481 
04:50	10.9	10.9	10.9	85	7.3	0	0	---	0.00	30.481 
04:55	10.5	10.5	10.5	85	6.9	0	0	---	0.00	30.481 
05:00	10.4	10.4	10.4	85	6.8	0	0	---	0.00	30.483 
05:05	10.4	10.4	10.4	85	6.8	0	0	---	0.00	30.483 
05:10	10.2	10.2	10.2	85	6.6	0	0	---	0.00	30.483 
05:15	10.4	10.4	10.4	86	7.1	0	0	---	0.00	30.484 
05:20	10.4	10.4	10.4	86	7.1	0	0	---	0.00	30.484 
05:25	10.5	10.5	10.5	86	7.2	0	0	---	0.00	30.484 
05:30	10.7	10.7	10.7	86	7.4	0	0	---	0.00	30.489 
05:35	11.2	11.2	11.2	87	8.1	0	1	292	0.00	30.489 
05:40	12.1	12.1	12.1	88	9.2	0	0	---	0.00	30.489 
05:45	12.6	12.6	12.6	87	9.5	0	0	---	0.00	30.493 
05:50	12.9	12.9	12.9	88	10.0	0	1	292	0.00	30.493 
05:55	13.8	13.8	13.8	89	11.2	0	1	292	0.00	30.493 
06:00	14.9	14.9	14.9	89	12.3	0	1	292	0.00	30.497 
06:05	15.6	15.6	15.6	89	12.9	0	1	292	0.00	30.497 
06:10	15.9	15.9	15.9	89	13.2	0	1	292	0.00	30.497 
06:15	16.1	16.1	16.1	88	13.2	0	2	292	0.00	30.500 
06:20	16.1	16.1	16.1	88	13.2	0	2	292	0.00	30.500 
06:25	15.9	15.9	15.9	88	13.0	0	2	292	0.00	30.500 
06:30	15.7	15.7	15.7	87	12.5	1	2	292	0.00	30.507 
06:35	15.4	15.4	15.4	87	12.2	1	2	270	0.00	30.507 
06:40	15.2	15.2	15.2	86	11.8	1	2	270	0.00	30.507 
06:45	14.9	14.9	14.9	86	11.5	1	4	248	0.00	30.512 
06:50	14.6	14.6	14.6	86	11.2	1	2	248	0.00	30.512 
06:55	14.3	14.3	14.3	85	10.6	0	1	248	0.00	30.512 
07:00	14.1	14.1	14.1	85	10.4	0	1	248	0.00	30.518 
07:05	13.8	13.8	13.8	84	9.9	0	1	248	0.00	30.518 
07:10	13.5	13.5	13.5	84	9.6	0	1	248	0.00	30.518 
07:15	13.1	13.1	13.1	84	9.2	0	2	248	0.00	30.526 
07:20	12.8	12.8	12.8	84	8.9	0	2	248	0.00	30.526 
07:25	12.6	12.6	12.6	84	8.7	1	3	248	0.00	30.526 
07:30	12.4	12.4	12.4	83	8.2	1	2	248	0.00	30.529 
07:35	12.3	12.3	12.3	83	8.1	0	2	248	0.00	30.529 
07:40	12.1	12.1	12.1	83	7.9	0	1	248	0.00	30.529 
07:45	11.9	11.9	11.9	83	7.8	0	1	248	0.00	30.530 
07:50	11.9	11.9	11.9	83	7.8	0	2	248	0.00	30.530 
07:55	11.9	11.9	11.9	83	7.8	1	3	248	0.00	30.530 
08:00	11.9	11.9	11.9	82	7.5	1	2	248	0.00	30.531 
08:05	11.7	11.7	11.7	82	7.3	1	3	248	0.00	30.531 
08:10	11.6	11.6	11.6	81	6.9	1	3	248	0.00	30.531 
08:15	11.4	11.4	11.4	81	6.7	0	2	248	0.00	30.531 
08:20	11.1	11.1	11.1	81	6.4	1	2	248	0.00	30.531 
08:25	11.1	11.1	11.1	81	6.4	1	2	248	0.00	30.531 
08:30	11.1	11.1	11.1	81	6.4	1	4	248	0.00	30.535 
08:35	11.1	11.1	11.1	81	6.4	1	3	248	0.00	30.535 
08:40	11.1	11.1	11.1	80	6.2	1	2	248	0.00	30.535 
08:45	11.1	11.1	11.1	80	6.2	1	3	248	0.00	30.544 
08:50	11.1	11.1	11.1	80	6.2	1	2	248	0.00	30.544 
08:55	11.2	11.2	11.2	80	6.3	1	4	248	0.00	30.544 
09:00	11.4	11.4	11.4	80	6.5	1	3	248	0.00	30.547 
09:05	11.7	11.7	11.7	80	6.7	1	4	248	0.00	30.547 
09:10	11.7	11.7	11.7	79	6.5	2	4	248	0.00	30.547 
09:15	12.1	12.1	12.1	79	6.9	1	3	248	0.00	30.550 
09:20	12.1	12.1	12.1	79	6.9	1	4	248	0.00	30.550 
09:25	12.3	12.3	12.3	79	7.1	1	3	248	0.00	30.550 
09:30	12.4	12.4	12.4	78	6.9	2	5	248	0.00	30.555 
09:35	12.6	12.6	12.6	78	7.1	1	3	248	0.00	30.555 
09:40	12.9	12.9	12.9	78	7.4	2	3	248	0.00	30.555 
09:45	13.5	13.5	13.5	78	7.9	1	3	248	0.00	30.559 
09:50	13.8	13.8	13.8	77	7.9	2	5	248	0.00	30.559 
09:55	13.8	13.8	13.8	76	7.7	2	4	248	0.00	30.559 
10:00	13.8	13.8	13.8	75	7.4	2	4	248	0.00	30.559 
10:05	13.8	13.8	13.8	75	7.4	2	6	248	0.00	30.559 
10:10	13.6	13.6	13.6	74	6.9	2	6	270	0.00	30.559 
10:15	13.6	13.6	13.6	73	6.6	3	5	248	0.00	30.562 
10:20	13.6	13.6	13.6	73	6.6	2	4	248	0.00	30.562 
10:25	14.0	14.0	14.0	73	7.0	2	5	248	0.00	30.562 
10:30	14.0	14.0	14.0	72	6.7	3	4	248	0.00	30.563 
10:35	14.3	14.3	14.3	73	7.3	2	5	248	0.00	30.563 
10:40	14.6	14.6	14.6	72	7.2	2	6	270	0.00	30.563 
10:45	14.8	14.8	14.8	72	7.4	2	6	248	0.00	30.563 
10:50	15.1	15.1	15.1	72	7.7	2	4	248	0.00	30.563 
10:55	15.1	15.1	15.1	71	7.4	2	4	270	0.00	30.563 
11:00	15.4	15.4	15.4	71	7.7	2	4	270	0.00	30.561 
11:05	15.4	15.4	15.4	71	7.7	2	4	270	0.00	30.561 
11:10	15.6	15.6	15.6	71	7.9	3	5	248	0.00	30.561 
11:15	15.6	15.6	15.6	71	7.9	3	7	270	0.00	30.562 
11:20	15.7	15.7	15.7	71	8.0	3	7	248	0.00	30.562 
11:25	15.9	15.9	15.9	71	8.2	2	5	270	0.00	30.562 
11:30	16.2	16.2	16.2	71	8.5	2	5	270	0.00	30.557 
11:35	16.4	16.4	16.4	71	8.7	3	5	248	0.00	30.557 
11:40	16.4	16.4	16.4	70	8.4	3	9	248	0.00	30.557 
11:45	16.5	16.5	16.5	71	8.8	2	4	270	0.00	30.549 
11:50	16.7	16.7	16.7	71	9.0	2	5	270	0.00	30.549 
11:55	16.9	16.9	16.9	71	9.2	2	4	248	0.00	30.549 
12:00	17.0	17.0	17.0	72	9.6	2	4	270	0.00	30.546 
12:05	17.2	17.2	17.2	71	9.4	2	4	248	0.00	30.546 
12:10	17.2	17.2	17.2	71	9.4	3	5	248	0.00	30.546 
12:15	17.0	17.0	17.0	71	9.2	2	4	248	0.00	30.540 
12:20	17.0	17.0	17.0	70	8.9	3	5	270	0.00	30.540 
12:25	17.0	17.0	17.0	69	8.6	3	9	270	0.00	30.540 
12:30	17.2	17.2	17.2	69	8.8	3	6	248	0.00	30.531 
12:35	17.2	17.2	17.2	68	8.5	3	7	248	0.00	30.531 
12:40	17.0	17.0	17.0	68	8.3	3	6	270	0.00	30.531 
12:45	17.2	17.2	17.2	67	8.2	3	6	248	0.00	30.528 
12:50	17.0	10.7	17.0	65	7.3	4	9	270	0.00	30.528 
12:55	17.0	17.0	17.0	65	7.3	3	10	270	0.00	30.528 
13:00	17.2	17.2	17.2	65	7.5	3	6	248	0.00	30.523 
13:05	17.3	11.1	17.3	64	7.2	4	10	248	0.00	30.523 
13:10	17.5	17.5	17.5	65	7.8	2	5	248	0.00	30.523 
13:15	17.5	11.3	17.5	63	7.1	4	11	248	0.00	30.523 
13:20	17.7	17.7	17.7	65	8.0	3	6	248	0.00	30.523 
13:25	17.8	17.8	17.8	64	7.7	3	5	248	0.00	30.523 
13:30	18.1	18.1	18.1	64	8.0	2	6	270	0.00	30.517 
13:35	18.3	18.3	18.3	63	7.8	3	7	248	0.00	30.517 
13:40	18.4	18.4	18.4	64	8.3	3	6	225	0.00	30.517 
13:45	18.6	18.6	18.6	64	8.5	2	6	225	0.00	30.509 
13:50	18.8	18.8	18.8	64	8.7	2	3	248	0.00	30.509 
13:55	19.1	19.1	19.1	64	9.0	2	3	248	0.00	30.509 
14:00	19.4	19.4	19.4	64	9.2	1	4	248	0.00	30.499 
14:05	19.7	19.7	19.7	65	9.9	2	5	248	0.00	30.499 
14:10	20.0	20.0	20.0	64	9.8	1	3	248	0.00	30.499 
14:15	20.2	20.2	20.2	64	10.0	2	4	248	0.00	30.487 
14:20	20.3	20.3	20.3	63	9.7	1	4	248	0.00	30.487 
14:25	20.3	20.3	20.3	63	9.7	1	4	248	0.00	30.487 
14:30	20.5	20.5	20.5	63	9.9	1	3	248	0.00	30.481 
14:35	20.5	20.5	20.5	62	9.6	2	4	248	0.00	30.481 
14:40	20.5	20.5	20.5	62	9.6	2	5	270	0.00	30.481 
14:45	20.6	20.6	20.6	62	9.7	1	3	248	0.00	30.476 
14:50	20.6	20.6	20.6	60	8.9	2	5	248	0.00	30.476 
14:55	20.3	20.3	20.3	61	9.0	2	5	248	0.00	30.476 
15:00	20.2	20.2	20.2	62	9.3	2	4	248	0.00	30.471 
15:05	19.7	19.7	19.7	60	8.1	2	4	270	0.00	30.471 
15:10	19.4	19.4	19.4	60	7.8	2	4	248	0.00	30.471 
15:15	19.2	19.2	19.2	60	7.6	2	5	248	0.00	30.466 
15:20	19.2	19.2	19.2	60	7.6	2	5	248	0.00	30.466 
15:25	19.1	19.1	19.1	61	7.9	2	3	270	0.00	30.466 
15:30	18.9	18.9	18.9	60	7.3	2	5	270	0.00	30.465 
15:35	18.6	18.6	18.6	60	7.1	2	4	248	0.00	30.465 
15:40	18.3	18.3	18.3	61	7.1	2	4	248	0.00	30.465 
15:45	18.4	18.4	18.4	61	7.2	2	3	248	0.00	30.466 
15:50	18.4	18.4	18.4	60	6.9	2	6	248	0.00	30.466 
15:55	18.4	18.4	18.4	60	6.9	2	3	270	0.00	30.466 
16:00	18.6	18.6	18.6	61	7.4	2	5	248	0.00	30.467 
16:05	18.8	18.8	18.8	61	7.6	2	5	248	0.00	30.467 
16:10	18.9	18.9	18.9	60	7.3	2	4	270	0.00	30.467 
16:15	18.9	18.9	18.9	60	7.3	2	5	248	0.00	30.471 
16:20	19.1	19.1	19.1	60	7.5	2	5	248	0.00	30.471 
16:25	19.2	19.2	19.2	60	7.6	2	4	248	0.00	30.471 
16:30	19.2	19.2	19.2	60	7.6	1	4	248	0.00	30.469 
16:35	19.4	19.4	19.4	61	8.2	1	3	248	0.00	30.469 
16:40	19.2	19.2	19.2	61	8.0	1	4	248	0.00	30.469 
16:45	19.2	19.2	19.2	60	7.6	1	5	248	0.00	30.469 
16:50	19.1	19.1	19.1	59	7.2	1	3	248	0.00	30.469 
16:55	19.1	19.1	19.1	60	7.5	1	6	248	0.00	30.469 
17:00	18.9	18.9	18.9	59	7.0	2	4	248	0.00	30.467 
17:05	18.9	18.9	18.9	59	7.0	1	5	248	0.00	30.467 
17:10	18.8	18.8	18.8	59	6.9	1	6	248	0.00	30.467 
17:15	18.4	18.4	18.4	58	6.1	1	4	248	0.00	30.465 
17:20	18.3	18.3	18.3	58	6.0	1	7	248	0.00	30.465 
17:25	18.1	18.1	18.1	59	6.2	2	6	248	0.00	30.465 
17:30	17.8	17.8	17.8	60	6.3	2	5	248	0.00	30.459 
17:35	17.7	17.7	17.7	61	6.6	0	3	248	0.00	30.459 
17:40	17.3	17.3	17.3	62	6.5	1	3	248	0.00	30.459 
17:45	17.2	17.2	17.2	63	6.8	1	3	248	0.00	30.458 
17:50	17.0	17.0	17.0	63	6.6	0	3	248	0.00	30.458 
17:55	16.7	16.7	16.7	64	6.7	1	3	248	0.00	30.458 
18:00	16.5	16.5	16.5	65	6.8	0	2	248	0.00	30.459 
18:05	16.4	16.4	16.4	65	6.7	0	2	248	0.00	30.459 
18:10	16.1	16.1	16.1	66	6.8	0	1	248	0.00	30.459 
18:15	15.9	15.9	15.9	66	6.6	0	2	248	0.00	30.464 
18:20	15.7	15.7	15.7	67	6.7	0	3	248	0.00	30.464 
18:25	15.6	15.6	15.6	67	6.6	0	2	248	0.00	30.464 
18:30	15.4	15.4	15.4	68	6.8	1	2	248	0.00	30.469 
18:35	15.2	15.2	15.2	69	6.9	0	3	248	0.00	30.469 
18:40	15.1	15.1	15.1	69	6.8	1	4	248	0.00	30.469 
18:45	15.1	15.1	15.1	69	6.8	1	4	248	0.00	30.468 
18:50	15.1	15.1	15.1	70	7.1	1	3	248	0.00	30.468 
18:55	15.1	15.1	15.1	70	7.1	1	3	248	0.00	30.468 
19:00	15.1	15.1	15.1	70	7.1	1	2	248	0.00	30.460 
19:05	14.9	14.9	14.9	70	6.9	1	4	248	0.00	30.460 
19:10	14.9	14.9	14.9	70	6.9	1	4	248	0.00	30.460 
19:15	14.9	14.9	14.9	70	6.9	1	4	248	0.00	30.463 
19:20	14.8	14.8	14.8	70	6.8	1	4	225	0.00	30.463 
19:25	14.8	14.8	14.8	70	6.8	2	5	248	0.00	30.463 
19:30	14.8	14.8	14.8	70	6.8	1	4	248	0.00	30.457 
19:35	14.6	14.6	14.6	70	6.6	1	4	248	0.00	30.457 
19:40	14.4	14.4	14.4	70	6.4	1	3	248	0.00	30.457 
19:45	14.4	14.4	14.4	71	6.7	1	4	248	0.00	30.456 
19:50	14.3	14.3	14.3	71	6.6	1	3	248	0.00	30.456 
19:55	14.1	14.1	14.1	72	6.8	0	2	248	0.00	30.456 
20:00	14.0	14.0	14.0	73	7.0	1	4	248	0.00	30.457 
20:05	14.0	14.0	14.0	73	7.0	1	2	248	0.00	30.457 
20:10	13.8	13.8	13.8	73	6.8	1	4	248	0.00	30.457 
20:15	13.8	13.8	13.8	74	7.1	1	3	248	0.00	30.459 
20:20	13.6	13.6	13.6	74	6.9	0	3	225	0.00	30.459 
20:25	13.6	13.6	13.6	74	6.9	0	3	225	0.00	30.459 
20:30	13.5	13.5	13.5	75	7.1	1	3	225	0.00	30.466 
20:35	13.5	13.5	13.5	75	7.1	1	4	248	0.00	30.466 
20:40	13.5	13.5	13.5	75	7.1	1	3	248	0.00	30.466 
20:45	13.5	13.5	13.5	75	7.1	1	2	270	0.00	30.458 
20:50	13.5	13.5	13.5	75	7.1	1	3	270	0.00	30.458 
20:55	13.3	13.3	13.3	75	6.9	1	3	248	0.00	30.458 
21:00	13.3	13.3	13.3	75	6.9	1	3	248	0.00	30.456 
21:05	13.3	13.3	13.3	75	6.9	0	2	248	0.00	30.456 
21:10	13.1	13.1	13.1	75	6.7	1	5	248	0.00	30.456 
21:15	13.1	13.1	13.1	75	6.7	1	2	248	0.00	30.446 
21:20	13.1	13.1	13.1	76	7.0	0	3	248	0.00	30.446 
21:25	13.3	13.3	13.3	76	7.2	1	3	248	0.00	30.446 
21:30	13.5	13.5	13.5	76	7.4	2	6	248	0.00	30.437 
21:35	13.8	13.8	13.8	76	7.7	1	4	270	0.00	30.437 
21:40	14.0	14.0	14.0	77	8.1	2	5	248	0.00	30.437 
21:45	14.3	14.3	14.3	77	8.4	2	6	248	0.00	30.434 
21:50	14.4	14.4	14.4	77	8.5	2	5	248	0.00	30.434 
21:55	14.6	14.6	14.6	77	8.7	2	5	248	0.00	30.434 
22:00	14.6	14.6	14.6	77	8.7	2	5	248	0.00	30.424 
22:05	14.6	14.6	14.6	77	8.7	2	5	248	0.00	30.424 
22:10	14.6	14.6	14.6	76	8.4	1	4	248	0.00	30.424 
22:15	14.4	14.4	14.4	76	8.2	1	4	248	0.00	30.427 
22:20	14.4	14.4	14.4	76	8.2	1	3	248	0.00	30.427 
22:25	14.3	14.3	14.3	76	8.1	1	5	248	0.00	30.427 
22:30	14.3	14.3	14.3	76	8.1	3	7	248	0.00	30.423 
22:35	14.4	14.4	14.4	75	8.0	2	5	248	0.00	30.423 
22:40	14.3	14.3	14.3	75	7.9	2	7	248	0.00	30.423 
22:45	14.3	14.3	14.3	75	7.9	2	7	248	0.00	30.421 
22:50	14.3	14.3	14.3	75	7.9	3	6	248	0.00	30.421 
22:55	14.4	14.4	14.4	75	8.0	2	6	248	0.00	30.421 
23:00	14.3	14.3	14.3	75	7.9	2	7	248	0.00	30.415 
23:05	14.3	14.3	14.3	75	7.9	2	5	248	0.00	30.415 
23:10	14.3	14.3	14.3	75	7.9	2	6	248	0.00	30.415 
23:15	14.3	14.3	14.3	75	7.9	3	5	248	0.00	30.405 
23:20	14.3	14.3	14.3	74	7.6	2	6	248	0.00	30.405 
23:25	14.1	14.1	14.1	74	7.4	2	7	248	0.00	30.405 
23:30	14.1	14.1	14.1	74	7.4	3	11	248	0.00	30.403 
23:35	14.1	14.1	14.1	74	7.4	2	5	225	0.00	30.403 
23:40	14.1	14.1	14.1	75	7.7	3	7	248	0.00	30.403 
23:45	14.0	14.0	14.0	75	7.6	3	6	248	0.00	30.393 
23:50	14.0	14.0	14.0	75	7.6	2	5	248	0.00	30.393 
23:55	13.8	13.8	13.8	75	7.4	3	6	248	0.00	30.393 

CoCoRaHS
IN-AL-39
A2 Web Hosting
Creative Commons License
GoDaddy
search engine by freefind advanced

loaded 2018-11-13 01:33:19 • last modified 2010-11-18 10:43:29
Privacy PolicyDisclaimer
• wx.awcolley.com is powered by PmWiki v.2002016 •
• all content (unless otherwise noted) © 2018 A W Colley